createdAt,value
2017-10-14T00:01:21.930Z,13.50
2017-10-14T00:03:49.372Z,13.49
2017-10-14T00:06:16.787Z,13.41
2017-10-14T00:08:44.347Z,13.50
2017-10-14T00:11:11.735Z,13.50
2017-10-14T00:13:39.169Z,13.43
2017-10-14T00:16:06.580Z,13.32
2017-10-14T00:18:34.035Z,13.40
2017-10-14T00:21:01.464Z,13.38
2017-10-14T00:23:28.903Z,13.31
2017-10-14T00:25:56.327Z,13.25
2017-10-14T00:28:23.730Z,13.27
2017-10-14T00:30:51.165Z,13.28
2017-10-14T00:33:18.600Z,13.34
2017-10-14T00:35:46.039Z,13.28
2017-10-14T00:38:13.441Z,13.29
2017-10-14T00:40:41.011Z,13.28
2017-10-14T00:43:08.461Z,13.21
2017-10-14T00:45:35.887Z,13.09
2017-10-14T00:48:03.323Z,13.22
2017-10-14T00:50:30.743Z,13.20
2017-10-14T00:52:58.144Z,13.14
2017-10-14T00:55:25.575Z,13.06
2017-10-14T00:57:52.976Z,13.05
2017-10-14T01:00:20.413Z,13.05
2017-10-14T01:02:47.820Z,13.12
2017-10-14T01:05:15.255Z,12.96
2017-10-14T01:07:42.655Z,12.97
2017-10-14T01:10:10.091Z,12.99
2017-10-14T01:12:37.578Z,12.94
2017-10-14T01:15:05.025Z,12.90
2017-10-14T01:17:32.462Z,12.88
2017-10-14T01:19:59.876Z,12.86
2017-10-14T01:22:27.322Z,12.89
2017-10-14T01:24:54.761Z,12.79
2017-10-14T01:27:22.190Z,12.61
2017-10-14T01:29:49.604Z,12.53
2017-10-14T01:32:17.053Z,12.60
2017-10-14T01:34:44.477Z,12.68
2017-10-14T01:37:11.875Z,12.63
2017-10-14T01:39:39.315Z,12.69
2017-10-14T01:42:06.725Z,12.66
2017-10-14T01:44:34.155Z,12.61
2017-10-14T01:47:01.564Z,12.65
2017-10-14T01:49:29.090Z,12.61
2017-10-14T01:51:56.483Z,12.64
2017-10-14T01:54:23.940Z,12.65
2017-10-14T01:56:51.383Z,12.61
2017-10-14T01:59:18.787Z,12.57
2017-10-14T02:01:46.209Z,12.60
2017-10-14T02:04:14.357Z,12.54
2017-10-14T02:06:41.779Z,12.54
2017-10-14T02:09:09.176Z,12.53
2017-10-14T02:11:36.612Z,12.39
2017-10-14T02:14:04.011Z,12.39
2017-10-14T02:16:31.432Z,12.37
2017-10-14T02:18:58.827Z,12.31
2017-10-14T02:21:26.263Z,12.33
2017-10-14T02:23:53.695Z,12.32
2017-10-14T02:26:21.094Z,12.32
2017-10-14T02:28:48.526Z,12.24
2017-10-14T02:31:15.915Z,12.28
2017-10-14T02:33:43.347Z,12.30
2017-10-14T02:36:10.747Z,12.31
2017-10-14T02:38:38.180Z,12.33
2017-10-14T02:41:05.598Z,12.26
2017-10-14T02:43:33.053Z,12.29
2017-10-14T02:46:00.462Z,12.31
2017-10-14T02:48:27.903Z,12.28
2017-10-14T02:50:55.325Z,12.12
2017-10-14T02:53:22.763Z,12.15
2017-10-14T02:55:50.204Z,12.21
2017-10-14T02:58:17.622Z,12.17
2017-10-14T03:00:45.036Z,12.20
2017-10-14T03:03:12.445Z,12.22
2017-10-14T03:05:39.919Z,12.15
2017-10-14T03:08:07.313Z,12.15
2017-10-14T03:10:34.765Z,12.07
2017-10-14T03:13:02.185Z,12.01
2017-10-14T03:15:29.586Z,12.04
2017-10-14T03:17:57.024Z,12.09
2017-10-14T03:20:24.465Z,12.05
2017-10-14T03:22:51.872Z,12.04
2017-10-14T03:25:19.337Z,12.05
2017-10-14T03:27:46.771Z,11.97
2017-10-14T03:30:14.175Z,11.91
2017-10-14T03:32:41.581Z,11.88
2017-10-14T03:35:09.034Z,11.87
2017-10-14T03:37:36.435Z,11.85
2017-10-14T03:40:03.853Z,11.85
2017-10-14T03:42:31.276Z,11.75
2017-10-14T03:44:58.699Z,11.73
2017-10-14T03:47:26.115Z,11.71
2017-10-14T03:49:53.556Z,11.73
2017-10-14T03:52:20.941Z,11.69
2017-10-14T03:54:48.407Z,11.65
2017-10-14T03:57:15.795Z,11.68
2017-10-14T03:59:43.225Z,11.74
2017-10-14T04:02:10.664Z,11.73
2017-10-14T04:04:38.097Z,11.92
2017-10-14T04:07:05.529Z,11.89
2017-10-14T04:09:32.916Z,11.86
2017-10-14T04:12:00.351Z,11.89
2017-10-14T04:14:27.760Z,11.91
2017-10-14T04:16:55.203Z,11.90
2017-10-14T04:19:22.596Z,11.73
2017-10-14T04:21:50.512Z,11.72
2017-10-14T04:24:17.895Z,11.80
2017-10-14T04:26:45.323Z,11.80
2017-10-14T04:29:12.743Z,11.75
2017-10-14T04:31:40.184Z,11.69
2017-10-14T04:34:07.616Z,11.66
2017-10-14T04:36:35.154Z,11.64
2017-10-14T04:39:02.596Z,11.67
2017-10-14T04:41:29.998Z,11.67
2017-10-14T04:43:57.435Z,11.62
2017-10-14T04:46:24.981Z,11.58
2017-10-14T04:48:52.431Z,11.68
2017-10-14T04:51:19.841Z,11.73
2017-10-14T04:53:47.301Z,11.76
2017-10-14T04:56:14.728Z,11.74
2017-10-14T04:58:42.197Z,11.75
2017-10-14T05:01:09.637Z,11.72
2017-10-14T05:03:37.078Z,11.71
2017-10-14T05:06:04.533Z,11.73
2017-10-14T05:08:31.985Z,11.71
2017-10-14T05:10:59.381Z,11.73
2017-10-14T05:13:26.807Z,11.75
2017-10-14T05:15:54.256Z,11.82
2017-10-14T05:18:21.691Z,11.77
2017-10-14T05:20:49.095Z,11.77
2017-10-14T05:23:16.519Z,11.69
2017-10-14T05:25:43.934Z,11.58
2017-10-14T05:28:11.364Z,11.52
2017-10-14T05:30:38.786Z,11.47
2017-10-14T05:33:06.203Z,11.50
2017-10-14T05:35:33.616Z,11.32
2017-10-14T05:38:01.065Z,11.46
2017-10-14T05:40:28.771Z,11.47
2017-10-14T05:42:56.189Z,11.49
2017-10-14T05:45:23.637Z,11.42
2017-10-14T05:47:51.061Z,11.39
2017-10-14T05:50:18.496Z,11.39
2017-10-14T05:52:45.900Z,11.45
2017-10-14T05:55:13.357Z,11.40
2017-10-14T05:57:40.744Z,11.37
2017-10-14T06:00:08.174Z,11.42
2017-10-14T06:02:35.575Z,11.37
2017-10-14T06:05:03.012Z,11.36
2017-10-14T06:07:30.455Z,11.35
2017-10-14T06:09:57.896Z,11.34
2017-10-14T06:12:25.308Z,11.39
2017-10-14T06:14:52.707Z,11.39
2017-10-14T06:17:20.164Z,11.33
2017-10-14T06:19:47.556Z,11.32
2017-10-14T06:22:14.994Z,11.38
2017-10-14T06:24:42.390Z,11.40
2017-10-14T06:27:09.812Z,11.32
2017-10-14T06:29:37.256Z,11.27
2017-10-14T06:32:04.696Z,11.30
2017-10-14T06:34:32.078Z,11.34
2017-10-14T06:36:59.532Z,11.36
2017-10-14T06:39:26.944Z,11.39
2017-10-14T06:41:54.347Z,11.52
2017-10-14T06:44:21.802Z,11.54
2017-10-14T06:46:49.198Z,11.60
2017-10-14T06:49:16.671Z,11.59
2017-10-14T06:51:44.064Z,11.64
2017-10-14T06:54:11.519Z,11.60
2017-10-14T06:56:38.923Z,11.58
2017-10-14T06:59:06.349Z,11.61
2017-10-14T07:01:33.754Z,11.66
2017-10-14T07:04:01.202Z,11.68
2017-10-14T07:06:28.632Z,11.78
2017-10-14T07:08:56.048Z,11.84
2017-10-14T07:11:23.504Z,11.86
2017-10-14T07:13:50.917Z,11.91
2017-10-14T07:16:18.480Z,11.98
2017-10-14T07:18:45.871Z,12.11
2017-10-14T07:21:13.314Z,12.12
2017-10-14T07:23:40.707Z,12.18
2017-10-14T07:26:08.143Z,12.31
2017-10-14T07:28:36.347Z,12.39
2017-10-14T07:31:03.775Z,12.54
2017-10-14T07:33:31.239Z,12.57
2017-10-14T07:35:58.663Z,12.54
2017-10-14T07:38:26.095Z,12.66
2017-10-14T07:40:53.499Z,12.73
2017-10-14T07:43:20.969Z,12.74
2017-10-14T07:45:48.373Z,12.74
2017-10-14T07:48:15.796Z,12.93
2017-10-14T07:50:43.230Z,13.07
2017-10-14T07:53:10.690Z,13.18
2017-10-14T07:55:38.088Z,13.31
2017-10-14T07:58:05.619Z,13.39
2017-10-14T08:00:33.058Z,13.41
2017-10-14T08:03:00.514Z,13.49
2017-10-14T08:05:27.961Z,13.61
2017-10-14T08:07:55.385Z,13.72
2017-10-14T08:10:22.823Z,13.80
2017-10-14T08:12:50.300Z,13.90
2017-10-14T08:15:17.769Z,13.99
2017-10-14T08:17:45.172Z,14.08
2017-10-14T08:20:12.655Z,14.17
2017-10-14T08:22:40.310Z,14.22
2017-10-14T08:25:07.861Z,14.47
2017-10-14T08:27:35.383Z,14.55
2017-10-14T08:30:02.855Z,14.64
2017-10-14T08:32:30.337Z,14.68
2017-10-14T08:34:57.802Z,14.86
2017-10-14T08:37:25.251Z,14.98
2017-10-14T08:39:52.635Z,15.07
2017-10-14T08:42:20.067Z,15.13
2017-10-14T08:44:47.474Z,15.25
2017-10-14T08:47:14.895Z,15.35
2017-10-14T08:49:42.338Z,15.52
2017-10-14T08:52:09.983Z,15.63
2017-10-14T08:54:37.383Z,15.73
2017-10-14T08:57:04.815Z,15.78
2017-10-14T08:59:32.237Z,15.96
2017-10-14T09:01:59.694Z,16.00
2017-10-14T09:04:27.153Z,16.08
2017-10-14T09:06:54.663Z,16.11
2017-10-14T09:09:22.148Z,16.26
2017-10-14T09:11:49.656Z,16.37
2017-10-14T09:14:17.071Z,16.46
2017-10-14T09:16:44.497Z,16.56
2017-10-14T09:19:11.952Z,16.68
2017-10-14T09:21:39.335Z,16.80
2017-10-14T09:24:07.116Z,16.93
2017-10-14T09:26:34.610Z,17.06
2017-10-14T09:29:02.008Z,17.15
2017-10-14T09:31:29.444Z,17.26
2017-10-14T09:33:56.842Z,17.33
2017-10-14T09:36:24.276Z,17.39
2017-10-14T09:38:51.734Z,17.47
2017-10-14T09:41:19.159Z,17.64
2017-10-14T09:43:46.588Z,17.72
2017-10-14T09:46:14.023Z,17.79
2017-10-14T09:48:41.547Z,17.89
2017-10-14T09:51:08.986Z,17.92
2017-10-14T09:53:36.444Z,18.01
2017-10-14T09:56:03.951Z,18.17
2017-10-14T09:58:31.468Z,18.19
2017-10-14T10:00:58.866Z,18.32
2017-10-14T10:03:26.393Z,18.40
2017-10-14T10:05:53.799Z,18.50
2017-10-14T10:08:21.231Z,18.51
2017-10-14T10:10:48.717Z,18.68
2017-10-14T10:13:16.147Z,18.75
2017-10-14T10:15:43.544Z,18.85
2017-10-14T10:18:10.986Z,18.88
2017-10-14T10:20:38.396Z,18.96
2017-10-14T10:23:05.834Z,19.09
2017-10-14T10:25:33.243Z,19.07
2017-10-14T10:28:00.712Z,19.18
2017-10-14T10:30:28.202Z,19.28
2017-10-14T10:32:55.618Z,19.35
2017-10-14T10:35:23.039Z,19.38
2017-10-14T10:37:50.453Z,19.52
2017-10-14T10:40:17.872Z,19.60
2017-10-14T10:42:45.935Z,19.70
2017-10-14T10:45:13.373Z,19.71
2017-10-14T10:47:40.792Z,19.73
2017-10-14T10:50:08.241Z,19.81
2017-10-14T10:52:35.681Z,19.89
2017-10-14T10:55:03.088Z,20.01
2017-10-14T10:57:31.502Z,20.09
2017-10-14T10:59:58.890Z,20.16
2017-10-14T11:02:26.303Z,20.26
2017-10-14T11:04:53.975Z,20.35
2017-10-14T11:07:21.398Z,20.45
2017-10-14T11:09:48.827Z,20.53
2017-10-14T11:12:16.265Z,20.73
2017-10-14T11:14:43.734Z,20.73
2017-10-14T11:17:11.143Z,20.71
2017-10-14T11:19:38.606Z,20.94
2017-10-14T11:22:06.010Z,21.01
2017-10-14T11:24:35.149Z,21.06
2017-10-14T11:27:02.587Z,21.18
2017-10-14T11:29:30.004Z,21.26
2017-10-14T11:31:57.440Z,21.31
2017-10-14T11:34:24.855Z,21.37
2017-10-14T11:36:52.366Z,21.45
2017-10-14T11:39:19.812Z,21.52
2017-10-14T11:41:47.420Z,21.52
2017-10-14T11:44:14.820Z,21.57
2017-10-14T11:46:42.254Z,21.69
2017-10-14T11:49:09.699Z,21.76
2017-10-14T11:51:37.132Z,21.88
2017-10-14T11:54:04.569Z,21.98
2017-10-14T11:56:31.959Z,22.03
2017-10-14T11:58:59.423Z,22.09
2017-10-14T12:01:26.812Z,22.18
2017-10-14T12:03:54.256Z,22.25
2017-10-14T12:06:21.737Z,22.39
2017-10-14T12:08:49.148Z,22.50
2017-10-14T12:11:16.586Z,22.57
2017-10-14T12:13:43.978Z,22.59
2017-10-14T12:16:11.419Z,22.69
2017-10-14T12:18:38.807Z,22.84
2017-10-14T12:21:06.232Z,22.97
2017-10-14T12:23:33.661Z,23.08
2017-10-14T12:26:01.399Z,23.18
2017-10-14T12:28:28.797Z,23.26
2017-10-14T12:30:56.194Z,23.35
2017-10-14T12:33:23.621Z,23.41
2017-10-14T12:35:51.011Z,23.51
2017-10-14T12:38:18.443Z,23.65
2017-10-14T12:40:45.847Z,23.75
2017-10-14T12:43:13.331Z,23.80
2017-10-14T12:45:40.736Z,23.90
2017-10-14T12:48:08.151Z,23.96
2017-10-14T12:50:35.552Z,24.16
2017-10-14T12:53:02.984Z,24.14
2017-10-14T12:55:30.866Z,24.14
2017-10-14T12:57:58.302Z,24.33
2017-10-14T13:00:25.778Z,24.45
2017-10-14T13:02:53.175Z,24.54
2017-10-14T13:05:20.883Z,24.65
2017-10-14T13:07:48.300Z,24.75
2017-10-14T13:10:15.889Z,24.77
2017-10-14T13:12:43.289Z,24.75
2017-10-14T13:15:10.730Z,24.74
2017-10-14T13:17:38.180Z,24.86
2017-10-14T13:20:05.623Z,25.03
2017-10-14T13:22:33.028Z,24.75
2017-10-14T13:25:00.491Z,24.48
2017-10-14T13:27:27.907Z,24.62
2017-10-14T13:29:55.320Z,24.80
2017-10-14T13:32:23.139Z,24.90
2017-10-14T13:34:50.597Z,25.17
2017-10-14T13:37:18.033Z,25.38
2017-10-14T13:39:45.482Z,25.16
2017-10-14T13:42:12.880Z,25.14
2017-10-14T13:44:40.336Z,25.33
2017-10-14T13:47:07.757Z,25.25
2017-10-14T13:49:35.176Z,25.03
2017-10-14T13:52:02.584Z,25.16
2017-10-14T13:54:30.004Z,25.38
2017-10-14T13:56:57.428Z,25.52
2017-10-14T13:59:24.831Z,25.63
2017-10-14T14:01:52.252Z,25.71
2017-10-14T14:04:19.644Z,26.07
2017-10-14T14:06:47.408Z,25.93
2017-10-14T14:09:14.815Z,25.65
2017-10-14T14:11:42.259Z,25.79
2017-10-14T14:14:09.685Z,25.65
2017-10-14T14:16:37.129Z,25.55
2017-10-14T14:19:04.587Z,25.65
2017-10-14T14:21:32.084Z,25.60
2017-10-14T14:23:59.529Z,25.47
2017-10-14T14:26:26.940Z,25.49
2017-10-14T14:28:54.375Z,25.27
2017-10-14T14:31:21.777Z,25.15
2017-10-14T14:33:49.214Z,25.01
2017-10-14T14:36:16.608Z,24.73
2017-10-14T14:38:44.022Z,24.53
2017-10-14T14:41:11.456Z,24.41
2017-10-14T14:43:38.903Z,24.35
2017-10-14T14:46:06.347Z,24.31
2017-10-14T14:48:33.748Z,24.26
2017-10-14T14:51:01.175Z,24.15
2017-10-14T14:53:28.583Z,24.11
2017-10-14T14:55:55.990Z,24.04
2017-10-14T14:58:23.399Z,23.96
2017-10-14T15:00:50.831Z,23.93
2017-10-14T15:03:18.272Z,23.82
2017-10-14T15:05:45.696Z,23.74
2017-10-14T15:08:13.119Z,23.68
2017-10-14T15:10:40.540Z,23.64
2017-10-14T15:13:07.943Z,23.63
2017-10-14T15:15:35.361Z,23.52
2017-10-14T15:18:02.763Z,23.27
2017-10-14T15:20:30.192Z,23.47
2017-10-14T15:22:57.600Z,23.40
2017-10-14T15:25:25.011Z,23.34
2017-10-14T15:27:52.424Z,23.30
2017-10-14T15:30:19.875Z,23.11
2017-10-14T15:32:47.259Z,23.15
2017-10-14T15:35:14.709Z,23.00
2017-10-14T15:37:42.136Z,22.98
2017-10-14T15:40:09.540Z,22.99
2017-10-14T15:42:36.982Z,22.95
2017-10-14T15:45:05.274Z,22.89
2017-10-14T15:47:32.683Z,22.83
2017-10-14T15:50:00.085Z,22.83
2017-10-14T15:52:27.532Z,22.79
2017-10-14T15:54:54.961Z,22.79
2017-10-14T15:57:22.422Z,22.75
2017-10-14T15:59:49.838Z,22.74
2017-10-14T16:02:17.433Z,22.67
2017-10-14T16:04:45.913Z,22.63
2017-10-14T16:07:13.300Z,22.62
2017-10-14T16:09:40.751Z,22.58
2017-10-14T16:12:08.131Z,22.55
2017-10-14T16:14:35.560Z,22.46
2017-10-14T16:17:03.000Z,22.20
2017-10-14T16:19:30.416Z,22.21
2017-10-14T16:21:57.812Z,22.16
2017-10-14T16:24:25.235Z,22.09
2017-10-14T16:26:52.636Z,22.02
2017-10-14T16:29:20.097Z,22.00
2017-10-14T16:31:47.483Z,21.98
2017-10-14T16:34:15.355Z,21.93
2017-10-14T16:36:43.412Z,21.90
2017-10-14T16:39:10.795Z,21.83
2017-10-14T16:41:38.223Z,21.71
2017-10-14T16:44:05.619Z,21.66
2017-10-14T16:46:33.049Z,21.55
2017-10-14T16:49:01.590Z,21.56
2017-10-14T16:51:29.055Z,21.42
2017-10-14T16:53:56.464Z,21.32
2017-10-14T16:56:23.863Z,21.22
2017-10-14T16:58:51.291Z,21.10
2017-10-14T17:01:18.680Z,21.06
2017-10-14T17:03:46.151Z,21.00
2017-10-14T17:06:13.556Z,20.91
2017-10-14T17:08:40.972Z,20.78
2017-10-14T17:11:08.424Z,20.64
2017-10-14T17:13:35.913Z,20.50
2017-10-14T17:16:03.332Z,20.46
2017-10-14T17:18:30.731Z,20.37
2017-10-14T17:20:58.149Z,20.30
2017-10-14T17:23:25.550Z,20.21
2017-10-14T17:25:52.983Z,20.14
2017-10-14T17:28:20.438Z,20.11
2017-10-14T17:30:47.888Z,20.03
2017-10-14T17:33:15.309Z,20.03
2017-10-14T17:35:42.751Z,19.88
2017-10-14T17:38:10.196Z,19.87
2017-10-14T17:40:37.632Z,19.82
2017-10-14T17:43:05.085Z,19.78
2017-10-14T17:48:06.251Z,19.53
2017-10-14T17:50:33.656Z,19.43
2017-10-14T17:53:01.130Z,19.27
2017-10-14T17:55:28.567Z,19.15
2017-10-14T17:57:56.041Z,19.06
2017-10-14T18:00:23.437Z,18.86
2017-10-14T18:02:50.881Z,18.88
2017-10-14T18:05:18.309Z,18.91
2017-10-14T18:07:45.768Z,18.97
2017-10-14T18:10:13.199Z,18.86
2017-10-14T18:12:40.640Z,18.84
2017-10-14T18:15:08.083Z,18.78
2017-10-14T18:17:35.632Z,18.75
2017-10-14T18:20:03.170Z,18.65
2017-10-14T18:22:30.608Z,18.55
2017-10-14T18:24:58.123Z,18.48
2017-10-14T18:27:25.564Z,18.46
2017-10-14T18:29:52.968Z,18.38
2017-10-14T18:32:20.395Z,18.34
2017-10-14T18:34:47.824Z,18.39
2017-10-14T18:37:15.257Z,18.26
2017-10-14T18:39:42.688Z,18.19
2017-10-14T18:42:10.091Z,18.14
2017-10-14T18:44:37.536Z,18.05
2017-10-14T18:47:04.961Z,17.94
2017-10-14T18:49:32.396Z,17.85
2017-10-14T18:51:59.870Z,17.86
2017-10-14T18:54:27.392Z,17.86
2017-10-14T18:56:58.527Z,17.85
2017-10-14T18:59:25.999Z,17.86
2017-10-14T19:01:53.392Z,17.84
2017-10-14T19:04:20.838Z,17.70
2017-10-14T19:06:48.243Z,17.61
2017-10-14T19:09:15.777Z,17.54
2017-10-14T19:11:43.202Z,17.48
2017-10-14T19:14:10.595Z,17.43
2017-10-14T19:16:38.032Z,17.32
2017-10-14T19:19:05.439Z,17.26
2017-10-14T19:21:32.892Z,17.21
2017-10-14T19:24:00.291Z,17.24
2017-10-14T19:26:27.766Z,17.20
2017-10-14T19:28:55.208Z,17.11
2017-10-14T19:31:22.652Z,17.03
2017-10-14T19:33:50.053Z,16.98
2017-10-14T19:36:17.447Z,16.93
2017-10-14T19:38:45.769Z,16.90
2017-10-14T19:41:13.208Z,16.82
2017-10-14T19:43:40.776Z,16.78
2017-10-14T19:46:08.183Z,16.74
2017-10-14T19:48:35.615Z,16.76
2017-10-14T19:51:03.017Z,16.76
2017-10-14T19:53:30.467Z,16.81
2017-10-14T19:55:57.880Z,16.80
2017-10-14T19:58:25.716Z,16.82
2017-10-14T20:00:53.118Z,16.88
2017-10-14T20:03:20.551Z,16.81
2017-10-14T20:05:48.066Z,16.66
2017-10-14T20:08:15.463Z,16.66
2017-10-14T20:10:42.897Z,16.61
2017-10-14T20:13:10.296Z,16.63
2017-10-14T20:15:37.761Z,16.58
2017-10-14T20:18:05.188Z,16.57
2017-10-14T20:20:32.613Z,16.29
2017-10-14T20:23:00.029Z,16.34
2017-10-14T20:25:27.450Z,16.31
2017-10-14T20:27:54.951Z,16.30
2017-10-14T20:30:22.347Z,16.24
2017-10-14T20:32:49.779Z,16.07
2017-10-14T20:35:17.183Z,16.10
2017-10-14T20:37:44.615Z,16.01
2017-10-14T20:40:12.024Z,15.96
2017-10-14T20:42:39.804Z,15.89
2017-10-14T20:45:07.192Z,15.84
2017-10-14T20:47:34.677Z,15.87
2017-10-14T20:50:02.095Z,15.85
2017-10-14T20:52:29.552Z,15.79
2017-10-14T20:54:56.985Z,15.85
2017-10-14T20:57:24.403Z,15.83
2017-10-14T20:59:51.824Z,15.74
2017-10-14T21:02:25.691Z,15.73
2017-10-14T21:04:54.926Z,15.73
2017-10-14T21:07:24.964Z,15.70
2017-10-14T21:09:52.431Z,15.70
2017-10-14T21:12:19.840Z,15.69
2017-10-14T21:14:47.244Z,15.68
2017-10-14T21:17:14.804Z,15.66
2017-10-14T21:19:42.213Z,15.59
2017-10-14T21:22:09.647Z,15.47
2017-10-14T21:24:37.043Z,15.32
2017-10-14T21:27:15.692Z,14.80
2017-10-14T21:29:43.201Z,15.41
2017-10-14T21:32:10.635Z,15.43
2017-10-14T21:34:39.321Z,15.33
2017-10-14T21:37:06.817Z,15.33
2017-10-14T21:39:34.224Z,15.33
2017-10-14T21:42:01.650Z,15.34
2017-10-14T21:44:29.131Z,15.24
2017-10-14T21:46:56.548Z,15.24
2017-10-14T21:49:23.964Z,15.20
2017-10-14T21:51:51.371Z,15.17
2017-10-14T21:54:18.792Z,14.94
2017-10-14T21:56:46.746Z,15.15
2017-10-14T21:59:14.192Z,15.17
2017-10-14T22:01:42.487Z,15.11
2017-10-14T22:04:10.035Z,14.97
2017-10-14T22:06:37.429Z,14.91
2017-10-14T22:09:04.892Z,14.91
2017-10-14T22:11:32.564Z,14.93
2017-10-14T22:14:00.391Z,14.86
2017-10-14T22:16:27.879Z,14.78
2017-10-14T22:18:55.314Z,14.55
2017-10-14T22:21:22.747Z,14.74
2017-10-14T22:23:51.096Z,14.80
2017-10-14T22:26:18.543Z,14.78
2017-10-14T22:28:46.089Z,14.61
2017-10-14T22:31:13.629Z,14.64
2017-10-14T22:33:41.032Z,14.64
2017-10-14T22:36:08.475Z,14.56
2017-10-14T22:38:35.904Z,14.50
2017-10-14T22:41:03.306Z,14.47
2017-10-14T22:43:30.734Z,14.35
2017-10-14T22:45:58.636Z,14.28
2017-10-14T22:48:26.072Z,14.29
2017-10-14T22:50:54.561Z,14.26
2017-10-14T22:53:22.028Z,14.21
2017-10-14T22:55:49.472Z,14.19
2017-10-14T22:58:16.876Z,14.09
2017-10-14T23:00:44.298Z,14.08
2017-10-14T23:03:11.699Z,14.13
2017-10-14T23:05:39.131Z,14.18
2017-10-14T23:08:07.336Z,14.19
2017-10-14T23:10:34.773Z,14.21
2017-10-14T23:13:02.972Z,14.23
2017-10-14T23:15:30.404Z,14.20
2017-10-14T23:17:57.823Z,14.16
2017-10-14T23:20:25.233Z,14.17
2017-10-14T23:22:52.652Z,14.06
2017-10-14T23:25:20.105Z,13.92
2017-10-14T23:27:47.528Z,14.07
2017-10-14T23:30:15.268Z,14.04
2017-10-14T23:32:42.705Z,13.96
2017-10-14T23:35:10.125Z,13.85
2017-10-14T23:37:37.640Z,13.78
2017-10-14T23:40:05.269Z,13.80
2017-10-14T23:42:32.734Z,13.79
2017-10-14T23:45:00.124Z,13.81
2017-10-14T23:47:27.547Z,13.79
2017-10-14T23:49:54.964Z,13.68
2017-10-14T23:52:22.440Z,13.63
2017-10-14T23:54:50.216Z,13.56
2017-10-14T23:57:17.683Z,13.57
2017-10-14T23:59:45.128Z,13.59
